createdAt,value
2018-03-04T00:02:20.211Z,23.20
2018-03-04T00:04:47.757Z,22.37
2018-03-04T00:07:15.278Z,22.50
2018-03-04T00:09:42.872Z,23.47
2018-03-04T00:12:10.464Z,24.73
2018-03-04T00:14:38.164Z,24.60
2018-03-04T00:17:06.028Z,24.10
2018-03-04T00:19:33.588Z,22.70
2018-03-04T00:22:01.147Z,22.33
2018-03-04T00:24:28.700Z,23.40
2018-03-04T00:26:56.259Z,22.50
2018-03-04T00:29:23.808Z,24.50
2018-03-04T00:31:51.354Z,24.17
2018-03-04T00:34:19.146Z,22.50
2018-03-04T00:36:46.693Z,24.07
2018-03-04T00:39:14.295Z,24.07
2018-03-04T00:41:41.857Z,24.27
2018-03-04T00:44:09.467Z,19.87
2018-03-04T00:46:37.174Z,22.57
2018-03-04T00:49:04.734Z,23.07
2018-03-04T00:51:32.287Z,23.73
2018-03-04T00:54:00.462Z,21.50
2018-03-04T00:56:28.008Z,23.93
2018-03-04T00:58:55.574Z,24.23
2018-03-04T01:01:23.149Z,24.50
2018-03-04T01:03:50.681Z,23.47
2018-03-04T01:06:18.318Z,25.10
2018-03-04T01:08:46.137Z,25.00
2018-03-04T01:11:13.678Z,24.17
2018-03-04T01:13:41.223Z,24.17
2018-03-04T01:16:08.783Z,23.40
2018-03-04T01:18:36.349Z,24.07
2018-03-04T01:21:03.895Z,24.57
2018-03-04T01:23:31.459Z,24.40
2018-03-04T01:25:59.119Z,24.50
2018-03-04T01:28:26.709Z,24.30
2018-03-04T01:30:54.271Z,22.90
2018-03-04T01:33:21.803Z,25.53
2018-03-04T01:35:49.385Z,24.60
2018-03-04T01:38:16.941Z,25.97
2018-03-04T01:40:44.506Z,24.40
2018-03-04T01:43:12.391Z,25.97
2018-03-04T01:45:40.012Z,24.93
2018-03-04T01:48:07.586Z,24.13
2018-03-04T01:50:35.153Z,22.97
2018-03-04T01:53:03.150Z,23.50
2018-03-04T01:55:30.717Z,22.53
2018-03-04T01:57:58.273Z,24.30
2018-03-04T02:00:25.974Z,24.80
2018-03-04T02:02:53.796Z,25.53
2018-03-04T02:05:21.370Z,24.87
2018-03-04T02:07:48.958Z,23.00
2018-03-04T02:10:16.782Z,23.40
2018-03-04T02:12:44.334Z,25.77
2018-03-04T02:15:11.892Z,25.03
2018-03-04T02:17:39.608Z,24.40
2018-03-04T02:20:07.156Z,23.70
2018-03-04T02:22:34.700Z,23.27
2018-03-04T02:25:02.352Z,25.77
2018-03-04T02:27:29.886Z,25.00
2018-03-04T02:29:57.790Z,23.63
2018-03-04T02:32:25.338Z,25.27
2018-03-04T02:34:52.904Z,22.60
2018-03-04T02:37:20.534Z,24.53
2018-03-04T02:39:48.114Z,25.17
2018-03-04T02:42:15.678Z,24.97
2018-03-04T02:44:43.568Z,23.93
2018-03-04T02:47:11.100Z,25.63
2018-03-04T02:49:38.672Z,25.17
2018-03-04T02:52:06.243Z,25.20
2018-03-04T02:54:34.108Z,25.60
2018-03-04T02:57:01.684Z,25.00
2018-03-04T02:59:29.264Z,24.70
2018-03-04T03:01:56.810Z,24.80
2018-03-04T03:04:24.346Z,24.67
2018-03-04T03:06:51.938Z,26.37
2018-03-04T03:09:19.546Z,24.57
2018-03-04T03:11:47.110Z,25.63
2018-03-04T03:14:14.726Z,23.10
2018-03-04T03:16:42.350Z,24.17
2018-03-04T03:19:09.890Z,24.10
2018-03-04T03:21:37.788Z,26.33
2018-03-04T03:24:05.319Z,24.40
2018-03-04T03:26:32.881Z,25.00
2018-03-04T03:29:00.458Z,23.73
2018-03-04T03:31:28.005Z,25.27
2018-03-04T03:33:55.789Z,25.23
2018-03-04T03:36:23.374Z,25.17
2018-03-04T03:38:50.934Z,26.10
2018-03-04T03:41:18.484Z,25.87
2018-03-04T03:43:46.051Z,26.30
2018-03-04T03:46:13.588Z,26.47
2018-03-04T03:48:41.133Z,24.53
2018-03-04T03:51:08.708Z,25.23
2018-03-04T03:53:36.591Z,25.77
2018-03-04T03:56:04.157Z,26.00
2018-03-04T03:58:31.824Z,25.30
2018-03-04T04:00:59.358Z,27.00
2018-03-04T04:03:26.941Z,24.87
2018-03-04T04:05:54.813Z,26.53
2018-03-04T04:08:22.330Z,25.67
2018-03-04T04:10:49.888Z,25.27
2018-03-04T04:13:17.790Z,27.57
2018-03-04T04:15:45.392Z,25.10
2018-03-04T04:18:12.940Z,25.80
2018-03-04T04:20:40.881Z,24.80
2018-03-04T04:23:08.407Z,25.87
2018-03-04T04:25:35.934Z,25.23
2018-03-04T04:28:03.513Z,26.13
2018-03-04T04:30:31.052Z,27.83
2018-03-04T04:32:58.598Z,27.30
2018-03-04T04:35:26.172Z,26.10
2018-03-04T04:37:53.725Z,25.93
2018-03-04T04:40:21.251Z,26.77
2018-03-04T04:42:48.805Z,27.13
2018-03-04T04:45:16.368Z,27.70
2018-03-04T04:47:43.923Z,26.43
2018-03-04T04:50:11.521Z,26.90
2018-03-04T04:52:39.046Z,25.73
2018-03-04T04:55:06.604Z,29.20
2018-03-04T04:57:34.498Z,26.60
2018-03-04T05:00:02.070Z,26.40
2018-03-04T05:02:29.619Z,26.20
2018-03-04T05:04:57.179Z,24.93
2018-03-04T05:07:24.707Z,27.10
2018-03-04T05:09:52.259Z,27.50
2018-03-04T05:12:19.822Z,27.77
2018-03-04T05:14:47.862Z,25.60
2018-03-04T05:17:15.429Z,26.37
2018-03-04T05:19:43.058Z,27.40
2018-03-04T05:22:10.600Z,25.97
2018-03-04T05:24:38.134Z,25.87
2018-03-04T05:27:05.773Z,26.07
2018-03-04T05:29:33.295Z,27.07
2018-03-04T05:32:00.866Z,25.93
2018-03-04T05:34:28.470Z,26.23
2018-03-04T05:36:56.298Z,25.27
2018-03-04T05:39:23.863Z,25.10
2018-03-04T05:41:51.715Z,27.83
2018-03-04T05:44:19.286Z,26.77
2018-03-04T05:46:46.823Z,26.80
2018-03-04T05:49:14.515Z,26.27
2018-03-04T05:51:42.066Z,28.20
2018-03-04T05:54:09.691Z,28.70
2018-03-04T05:56:37.261Z,27.40
2018-03-04T05:59:04.813Z,26.33
2018-03-04T06:01:32.616Z,26.93
2018-03-04T06:04:00.197Z,25.17
2018-03-04T06:06:27.733Z,26.40
2018-03-04T06:08:55.317Z,27.17
2018-03-04T06:11:23.735Z,27.50
2018-03-04T06:13:51.570Z,29.00
2018-03-04T06:16:19.123Z,26.30
2018-03-04T06:18:46.661Z,26.53
2018-03-04T06:21:14.241Z,26.93
2018-03-04T06:23:41.816Z,27.40
2018-03-04T06:26:09.362Z,26.70
2018-03-04T06:28:36.970Z,27.37
2018-03-04T06:31:04.885Z,27.50
2018-03-04T06:33:32.446Z,26.37
2018-03-04T06:36:00.010Z,26.40
2018-03-04T06:38:27.642Z,25.80
2018-03-04T06:40:55.170Z,27.00
2018-03-04T06:43:22.823Z,25.97
2018-03-04T06:45:50.421Z,26.70
2018-03-04T06:48:18.006Z,26.20
2018-03-04T06:50:45.570Z,26.93
2018-03-04T06:53:13.138Z,27.03
2018-03-04T06:55:40.698Z,25.77
2018-03-04T06:58:08.259Z,28.30
2018-03-04T07:00:35.812Z,27.70
2018-03-04T07:03:03.777Z,24.83
2018-03-04T07:05:31.333Z,27.37
2018-03-04T07:07:58.930Z,27.30
2018-03-04T07:10:27.424Z,27.47
2018-03-04T07:12:55.139Z,27.37
2018-03-04T07:15:22.751Z,25.23
2018-03-04T07:17:50.337Z,26.87
2018-03-04T07:20:18.241Z,25.53
2018-03-04T07:22:45.883Z,26.13
2018-03-04T07:25:13.446Z,25.90
2018-03-04T07:27:41.014Z,26.60
2018-03-04T07:30:08.563Z,27.13
2018-03-04T07:32:36.150Z,27.17
2018-03-04T07:35:03.730Z,26.83
2018-03-04T07:37:31.320Z,27.63
2018-03-04T07:39:58.875Z,26.93
2018-03-04T07:42:26.433Z,27.23
2018-03-04T07:44:53.998Z,25.43
2018-03-04T07:47:21.932Z,27.13
2018-03-04T07:49:49.506Z,27.23
2018-03-04T07:52:17.115Z,26.57
2018-03-04T07:54:44.729Z,28.83
2018-03-04T07:57:12.480Z,28.17
2018-03-04T07:59:40.033Z,26.57
2018-03-04T08:02:07.660Z,26.80
2018-03-04T08:04:35.218Z,26.50
2018-03-04T08:07:02.829Z,26.33
2018-03-04T08:09:30.394Z,27.10
2018-03-04T08:11:57.968Z,26.80
2018-03-04T08:14:25.704Z,26.53
2018-03-04T08:16:53.279Z,26.63
2018-03-04T08:19:20.941Z,26.87
2018-03-04T08:21:48.497Z,27.33
2018-03-04T08:24:28.082Z,26.40
2018-03-04T08:27:07.541Z,26.27
2018-03-04T08:29:35.072Z,29.73
2018-03-04T08:32:02.711Z,28.90
2018-03-04T08:34:30.290Z,27.63
2018-03-04T08:36:58.137Z,27.77
2018-03-04T08:39:25.689Z,28.93
2018-03-04T08:41:53.218Z,27.87
2018-03-04T08:44:21.121Z,28.07
2018-03-04T08:46:48.700Z,27.30
2018-03-04T08:49:16.242Z,27.63
2018-03-04T08:51:43.825Z,28.27
2018-03-04T08:54:11.389Z,29.60
2018-03-04T08:56:38.984Z,30.23
2018-03-04T08:59:06.695Z,28.67
2018-03-04T09:01:34.249Z,27.80
2018-03-04T09:04:02.196Z,29.13
2018-03-04T09:06:29.688Z,28.37
2018-03-04T09:08:57.243Z,29.43
2018-03-04T09:11:24.789Z,29.07
2018-03-04T09:13:52.350Z,29.47
2018-03-04T09:16:19.904Z,28.47
2018-03-04T09:18:47.787Z,29.70
2018-03-04T09:21:15.482Z,31.90
2018-03-04T09:23:43.305Z,31.33
2018-03-04T09:26:10.847Z,30.40
2018-03-04T09:28:38.442Z,32.63
2018-03-04T09:31:05.979Z,31.00
2018-03-04T09:33:33.558Z,31.70
2018-03-04T09:36:01.134Z,30.40
2018-03-04T09:38:29.051Z,32.07
2018-03-04T09:40:56.949Z,32.80
2018-03-04T09:43:24.500Z,30.17
2018-03-04T09:45:52.091Z,31.67
2018-03-04T09:48:19.641Z,32.57
2018-03-04T09:50:47.199Z,30.50
2018-03-04T09:53:14.761Z,32.53
2018-03-04T09:58:23.600Z,31.67
2018-03-04T10:00:51.147Z,32.83
2018-03-04T10:03:18.698Z,32.90
2018-03-04T10:05:46.264Z,33.17
2018-03-04T10:08:13.869Z,30.90
2018-03-04T10:10:41.447Z,32.90
2018-03-04T10:13:09.003Z,30.90
2018-03-04T10:15:36.629Z,32.67
2018-03-04T10:18:04.172Z,31.23
2018-03-04T10:20:31.787Z,33.10
2018-03-04T10:22:59.332Z,32.63
2018-03-04T10:25:26.983Z,33.67
2018-03-04T10:27:54.540Z,33.63
2018-03-04T10:30:22.117Z,33.00
2018-03-04T10:32:49.639Z,35.13
2018-03-04T10:35:17.180Z,38.90
2018-03-04T10:37:45.467Z,35.90
2018-03-04T10:40:13.022Z,34.40
2018-03-04T10:42:40.845Z,33.90
2018-03-04T10:45:08.402Z,35.03
2018-03-04T10:47:35.959Z,35.60
2018-03-04T10:50:03.515Z,36.97
2018-03-04T10:52:31.123Z,37.10
2018-03-04T10:54:58.636Z,35.43
2018-03-04T10:57:26.164Z,35.47
2018-03-04T10:59:53.742Z,41.40
2018-03-04T11:02:24.083Z,39.97
2018-03-04T11:04:51.676Z,38.93
2018-03-04T11:07:19.212Z,36.63
2018-03-04T11:09:46.773Z,40.07
2018-03-04T11:12:14.310Z,40.33
2018-03-04T11:14:41.877Z,39.23
2018-03-04T11:17:09.511Z,37.80
2018-03-04T11:19:37.077Z,38.30
2018-03-04T11:22:04.626Z,39.20
2018-03-04T11:24:32.179Z,38.60
2018-03-04T11:26:59.790Z,38.60
2018-03-04T11:29:27.355Z,40.03
2018-03-04T11:31:55.210Z,39.63
2018-03-04T11:34:22.742Z,36.90
2018-03-04T11:36:50.872Z,40.80
2018-03-04T11:39:18.561Z,40.67
2018-03-04T11:41:46.169Z,39.90
2018-03-04T11:44:14.029Z,39.97
2018-03-04T11:46:41.562Z,43.47
2018-03-04T11:49:09.103Z,42.47
2018-03-04T11:51:36.632Z,42.50
2018-03-04T11:54:04.480Z,42.67
2018-03-04T11:56:32.021Z,43.60
2018-03-04T11:58:59.627Z,42.83
2018-03-04T12:01:27.166Z,42.77
2018-03-04T12:03:54.948Z,42.83
2018-03-04T12:06:22.524Z,42.70
2018-03-04T12:08:50.133Z,46.30
2018-03-04T12:11:17.683Z,47.00
2018-03-04T12:13:45.198Z,42.70
2018-03-04T12:16:13.048Z,46.07
2018-03-04T12:18:40.613Z,46.90
2018-03-04T12:21:08.163Z,46.33
2018-03-04T12:23:35.694Z,47.37
2018-03-04T12:26:03.590Z,44.80
2018-03-04T12:28:31.162Z,46.30
2018-03-04T12:30:58.722Z,47.67
2018-03-04T12:33:26.349Z,48.77
2018-03-04T12:35:53.903Z,48.33
2018-03-04T12:38:21.487Z,49.33
2018-03-04T12:40:49.127Z,48.10
2018-03-04T12:43:17.810Z,47.40
2018-03-04T12:45:45.448Z,50.20
2018-03-04T12:48:13.006Z,50.37
2018-03-04T12:50:40.833Z,46.83
2018-03-04T12:53:08.410Z,47.63
2018-03-04T12:55:36.060Z,46.70
2018-03-04T12:58:03.639Z,48.67
2018-03-04T13:00:31.487Z,50.70
2018-03-04T13:02:59.007Z,45.60
2018-03-04T13:05:26.810Z,47.20
2018-03-04T13:07:56.122Z,48.67
2018-03-04T13:10:23.981Z,46.87
2018-03-04T13:12:51.562Z,48.03
2018-03-04T13:15:19.125Z,47.17
2018-03-04T13:17:47.898Z,44.27
2018-03-04T13:20:15.451Z,45.60
2018-03-04T13:22:42.996Z,48.20
2018-03-04T13:25:10.555Z,44.47
2018-03-04T13:27:38.251Z,45.47
2018-03-04T13:30:05.872Z,42.37
2018-03-04T13:32:33.472Z,44.40
2018-03-04T13:35:01.170Z,47.40
2018-03-04T13:37:28.719Z,43.30
2018-03-04T13:39:58.294Z,46.87
2018-03-04T13:42:25.857Z,48.13
2018-03-04T13:44:53.382Z,50.10
2018-03-04T13:47:21.434Z,48.03
2018-03-04T13:49:48.956Z,42.70
2018-03-04T13:52:16.989Z,42.83
2018-03-04T13:54:44.573Z,43.20
2018-03-04T13:57:12.162Z,42.30
2018-03-04T13:59:39.713Z,41.90
2018-03-04T14:02:07.339Z,42.60
2018-03-04T14:04:35.143Z,42.93
2018-03-04T14:07:03.093Z,40.20
2018-03-04T14:09:30.863Z,39.63
2018-03-04T14:11:59.256Z,40.33
2018-03-04T14:14:27.112Z,38.10
2018-03-04T14:16:54.980Z,39.00
2018-03-04T14:19:22.523Z,39.27
2018-03-04T14:21:50.875Z,39.70
2018-03-04T14:24:19.005Z,39.13
2018-03-04T14:26:46.563Z,38.43
2018-03-04T14:29:14.156Z,40.13
2018-03-04T14:31:41.768Z,38.40
2018-03-04T14:34:09.291Z,41.70
2018-03-04T14:36:37.699Z,41.63
2018-03-04T14:39:05.237Z,38.50
2018-03-04T14:41:33.224Z,41.33
2018-03-04T14:44:01.097Z,40.73
2018-03-04T14:46:28.747Z,40.83
2018-03-04T14:48:56.464Z,41.27
2018-03-04T14:51:24.149Z,40.20
2018-03-04T14:53:52.543Z,41.00
2018-03-04T14:56:20.421Z,41.80
2018-03-04T14:58:47.990Z,40.83
2018-03-04T15:01:15.553Z,42.87
2018-03-04T15:03:43.118Z,41.83
2018-03-04T15:06:10.663Z,41.80
2018-03-04T15:08:38.233Z,41.50
2018-03-04T15:11:06.103Z,40.77
2018-03-04T15:13:33.643Z,40.20
2018-03-04T15:16:01.186Z,40.13
2018-03-04T15:18:28.977Z,43.00
2018-03-04T15:20:56.886Z,39.00
2018-03-04T15:23:24.411Z,38.67
2018-03-04T15:25:51.942Z,37.50
2018-03-04T15:28:19.491Z,38.27
2018-03-04T15:30:47.058Z,42.93
2018-03-04T15:33:14.650Z,40.30
2018-03-04T15:35:42.207Z,39.23
2018-03-04T15:38:09.802Z,39.30
2018-03-04T15:40:37.455Z,39.70
2018-03-04T15:43:05.025Z,37.40
2018-03-04T15:45:32.572Z,35.87
2018-03-04T15:48:00.164Z,37.07
2018-03-04T15:50:28.035Z,37.70
2018-03-04T15:52:55.640Z,38.17
2018-03-04T15:55:23.202Z,38.90
2018-03-04T15:57:50.844Z,39.30
2018-03-04T16:00:18.453Z,36.30
2018-03-04T16:02:46.187Z,35.60
2018-03-04T16:05:13.976Z,37.90
2018-03-04T16:07:41.578Z,39.80
2018-03-04T16:10:09.634Z,38.43
2018-03-04T16:12:37.332Z,36.60
2018-03-04T16:15:06.300Z,37.47
2018-03-04T16:17:34.021Z,36.40
2018-03-04T16:20:01.764Z,37.50
2018-03-04T16:22:29.403Z,37.73
2018-03-04T16:24:57.018Z,37.67
2018-03-04T16:27:25.600Z,39.40
2018-03-04T16:29:53.143Z,36.00
2018-03-04T16:32:20.683Z,41.30
2018-03-04T16:34:48.202Z,43.13
2018-03-04T16:37:15.840Z,37.80
2018-03-04T16:39:43.390Z,34.70
2018-03-04T16:42:10.948Z,37.33
2018-03-04T16:44:38.586Z,36.93
2018-03-04T16:47:06.117Z,35.67
2018-03-04T16:49:33.660Z,38.90
2018-03-04T16:52:01.224Z,37.60
2018-03-04T16:54:28.813Z,34.10
2018-03-04T16:56:58.148Z,36.23
2018-03-04T16:59:25.700Z,36.10
2018-03-04T17:01:53.337Z,35.90
2018-03-04T17:04:20.925Z,35.23
2018-03-04T17:06:48.850Z,35.23
2018-03-04T17:09:16.531Z,32.47
2018-03-04T17:11:44.121Z,34.40
2018-03-04T17:14:11.944Z,35.40
2018-03-04T17:16:39.512Z,33.60
2018-03-04T17:19:07.074Z,33.40
2018-03-04T17:21:34.614Z,33.13
2018-03-04T17:24:02.192Z,33.37
2018-03-04T17:26:30.059Z,34.70
2018-03-04T17:28:57.632Z,34.20
2018-03-04T17:31:25.227Z,34.03
2018-03-04T17:33:52.776Z,31.60
2018-03-04T17:36:20.318Z,33.90
2018-03-04T17:38:48.017Z,32.67
2018-03-04T17:41:15.595Z,31.30
2018-03-04T17:43:43.420Z,33.30
2018-03-04T17:46:10.980Z,32.73
2018-03-04T17:48:38.642Z,30.60
2018-03-04T17:51:06.196Z,29.83
2018-03-04T17:53:33.858Z,30.73
2018-03-04T17:56:01.407Z,37.10
2018-03-04T17:58:29.006Z,36.63
2018-03-04T18:00:56.575Z,30.37
2018-03-04T18:03:24.121Z,32.27
2018-03-04T18:05:51.651Z,30.37
2018-03-04T18:08:19.206Z,31.70
2018-03-04T18:10:46.777Z,30.10
2018-03-04T18:13:15.467Z,28.67
2018-03-04T18:15:43.073Z,31.80
2018-03-04T18:18:10.688Z,28.90
2018-03-04T18:20:38.242Z,30.03
2018-03-04T18:23:05.853Z,31.13
2018-03-04T18:25:33.373Z,29.90
2018-03-04T18:28:01.043Z,30.27
2018-03-04T18:30:28.642Z,30.27
2018-03-04T18:32:56.296Z,31.17
2018-03-04T18:35:23.871Z,30.77
2018-03-04T18:37:51.418Z,30.70
2018-03-04T18:40:20.575Z,31.43
2018-03-04T18:42:48.131Z,31.77
2018-03-04T18:45:15.733Z,31.10
2018-03-04T18:47:43.324Z,32.73
2018-03-04T18:50:10.850Z,32.37
2018-03-04T18:52:38.366Z,32.20
2018-03-04T18:55:05.943Z,31.33
2018-03-04T18:57:33.511Z,31.87
2018-03-04T19:00:01.092Z,32.37
2018-03-04T19:02:28.656Z,31.60
2018-03-04T19:04:56.335Z,32.00
2018-03-04T19:07:23.906Z,32.83
2018-03-04T19:09:51.466Z,31.10
2018-03-04T19:12:19.062Z,32.77
2018-03-04T19:14:46.627Z,32.57
2018-03-04T19:17:14.172Z,33.47
2018-03-04T19:19:41.778Z,32.60
2018-03-04T19:22:09.290Z,33.80
2018-03-04T19:24:36.890Z,34.37
2018-03-04T19:27:04.421Z,34.63
2018-03-04T19:29:31.997Z,36.03
2018-03-04T19:31:59.958Z,35.10
2018-03-04T19:34:27.529Z,41.50
2018-03-04T19:36:55.181Z,34.43
2018-03-04T19:39:22.753Z,34.13
2018-03-04T19:41:50.420Z,34.77
2018-03-04T19:44:18.084Z,33.00
2018-03-04T19:46:45.674Z,35.33
2018-03-04T19:49:13.255Z,35.00
2018-03-04T19:51:40.857Z,37.10
2018-03-04T19:54:08.466Z,35.90
2018-03-04T19:56:37.014Z,34.60
2018-03-04T19:59:04.659Z,34.40
2018-03-04T20:01:32.204Z,35.07
2018-03-04T20:03:59.860Z,35.03
2018-03-04T20:06:27.443Z,35.30
2018-03-04T20:08:55.027Z,35.57
2018-03-04T20:11:22.565Z,34.50
2018-03-04T20:13:50.139Z,36.67
2018-03-04T20:16:17.686Z,35.47
2018-03-04T20:18:45.246Z,35.50
2018-03-04T20:21:12.997Z,37.40
2018-03-04T20:23:40.570Z,36.67
2018-03-04T20:26:08.529Z,35.67
2018-03-04T20:28:36.523Z,37.53
2018-03-04T20:31:04.297Z,37.27
2018-03-04T20:33:34.869Z,36.67
2018-03-04T20:36:02.556Z,35.07
2018-03-04T20:38:30.218Z,34.97
2018-03-04T20:40:57.764Z,35.13
2018-03-04T20:43:25.309Z,37.10
2018-03-04T20:45:52.934Z,35.20
2018-03-04T20:48:20.567Z,35.27
2018-03-04T20:50:48.111Z,37.17
2018-03-04T20:53:15.636Z,35.07
2018-03-04T20:55:43.208Z,36.80
2018-03-04T20:58:10.803Z,34.67
2018-03-04T21:00:38.401Z,36.10
2018-03-04T21:03:05.942Z,36.13
2018-03-04T21:05:33.479Z,35.53
2018-03-04T21:08:01.282Z,33.90
2018-03-04T21:10:28.835Z,39.33
2018-03-04T21:12:57.769Z,34.67
2018-03-04T21:15:25.513Z,33.57
2018-03-04T21:17:53.065Z,34.90
2018-03-04T21:20:22.538Z,33.63
2018-03-04T21:22:50.099Z,34.03
2018-03-04T21:25:17.672Z,35.53
2018-03-04T21:27:45.471Z,38.90
2018-03-04T21:30:13.030Z,49.67
2018-03-04T21:32:40.667Z,36.43
2018-03-04T21:35:18.670Z,35.00
2018-03-04T21:37:46.186Z,38.13
2018-03-04T21:40:14.044Z,37.23
2018-03-04T21:42:41.577Z,36.37
2018-03-04T21:45:09.097Z,40.75
2018-03-04T21:47:36.701Z,37.93
2018-03-04T21:50:04.414Z,35.90
2018-03-04T21:52:31.966Z,36.70
2018-03-04T21:54:59.514Z,35.53
2018-03-04T21:57:27.066Z,34.17
2018-03-04T21:59:54.674Z,33.00
2018-03-04T22:02:23.061Z,36.10
2018-03-04T22:04:50.774Z,36.70
2018-03-04T22:07:18.302Z,34.27
2018-03-04T22:09:45.960Z,34.30
2018-03-04T22:12:13.481Z,34.33
2018-03-04T22:14:41.041Z,35.07
2018-03-04T22:17:08.600Z,33.70
2018-03-04T22:19:36.200Z,38.40
2018-03-04T22:22:03.721Z,35.07
2018-03-04T22:24:31.279Z,34.63
2018-03-04T22:26:58.843Z,34.67
2018-03-04T22:29:26.394Z,33.50
2018-03-04T22:31:53.935Z,35.17
2018-03-04T22:34:23.155Z,34.23
2018-03-04T22:36:50.741Z,36.13
2018-03-04T22:39:18.266Z,37.00
2018-03-04T22:41:45.849Z,36.50
2018-03-04T22:44:13.403Z,36.70
2018-03-04T22:46:41.216Z,33.27
2018-03-04T22:49:08.778Z,34.80
2018-03-04T22:51:36.464Z,34.60
2018-03-04T22:54:04.023Z,33.07
2018-03-04T22:56:31.770Z,35.90
2018-03-04T22:58:59.387Z,33.70
2018-03-04T23:01:27.049Z,33.73
2018-03-04T23:03:54.746Z,34.60
2018-03-04T23:06:22.313Z,35.07
2018-03-04T23:08:50.177Z,33.43
2018-03-04T23:11:17.822Z,31.90
2018-03-04T23:13:45.414Z,33.63
2018-03-04T23:16:12.989Z,34.47
2018-03-04T23:18:40.540Z,33.73
2018-03-04T23:21:09.478Z,32.43
2018-03-04T23:23:37.073Z,33.97
2018-03-04T23:26:04.952Z,35.00
2018-03-04T23:28:32.475Z,34.40
2018-03-04T23:31:00.023Z,33.50
2018-03-04T23:33:27.617Z,35.47
2018-03-04T23:35:55.168Z,34.90
2018-03-04T23:38:22.698Z,32.90
2018-03-04T23:40:50.524Z,33.70
2018-03-04T23:43:18.058Z,32.33
2018-03-04T23:45:45.846Z,33.40
2018-03-04T23:48:13.416Z,34.20
2018-03-04T23:50:40.975Z,32.87
2018-03-04T23:53:08.535Z,32.80
2018-03-04T23:55:36.394Z,33.83
2018-03-04T23:58:03.950Z,45.13
